createdAt,value
2023-02-02T00:02:38.569Z,15.00
2023-02-02T00:07:43.813Z,13.23
2023-02-02T00:12:47.913Z,13.68
2023-02-02T00:17:51.687Z,19.17
2023-02-02T00:22:57.296Z,6.90
2023-02-02T00:28:03.327Z,10.50
2023-02-02T00:33:09.543Z,15.05
2023-02-02T00:38:16.257Z,11.73
2023-02-02T00:43:19.834Z,12.15
2023-02-02T00:48:31.616Z,9.20
2023-02-02T00:53:39.552Z,11.13
2023-02-02T00:58:43.903Z,20.27
2023-02-02T01:03:48.532Z,9.32
2023-02-02T01:08:54.663Z,9.73
2023-02-02T01:13:59.179Z,19.30
2023-02-02T01:19:03.483Z,21.45
2023-02-02T01:24:10.722Z,14.77
2023-02-02T01:29:16.099Z,14.98
2023-02-02T01:34:23.749Z,11.93
2023-02-02T01:39:28.597Z,12.95
2023-02-02T01:45:09.231Z,10.38
2023-02-02T01:50:13.667Z,7.88
2023-02-02T01:55:19.850Z,21.10
2023-02-02T02:00:27.978Z,18.15
2023-02-02T02:05:33.330Z,15.48
2023-02-02T02:10:39.075Z,17.92
2023-02-02T02:16:06.763Z,13.77
2023-02-02T02:28:06.356Z,19.05
2023-02-02T02:33:12.852Z,16.33
2023-02-02T02:38:19.847Z,18.15
2023-02-02T02:43:26.767Z,16.55
2023-02-02T02:48:33.141Z,11.88
2023-02-02T02:53:40.496Z,13.25
2023-02-02T02:58:47.781Z,15.90
2023-02-02T03:04:04.855Z,18.70
2023-02-02T03:09:11.137Z,16.00
2023-02-02T03:14:15.149Z,20.77
2023-02-02T03:19:21.884Z,16.38
2023-02-02T03:24:25.775Z,11.82
2023-02-02T03:29:30.525Z,11.98
2023-02-02T03:34:35.788Z,15.73
2023-02-02T03:39:40.007Z,13.82
2023-02-02T03:44:43.746Z,13.13
2023-02-02T03:49:49.086Z,16.75
2023-02-02T03:54:53.526Z,16.50
2023-02-02T03:59:58.845Z,10.68
2023-02-02T04:05:06.847Z,13.50
2023-02-02T04:10:13.385Z,13.43
2023-02-02T04:15:18.625Z,9.35
2023-02-02T04:20:24.825Z,16.90
2023-02-02T04:25:30.482Z,17.58
2023-02-02T04:30:34.105Z,9.38
2023-02-02T04:35:40.162Z,10.07
2023-02-02T04:40:44.686Z,11.80
2023-02-02T04:45:48.189Z,8.48
2023-02-02T04:51:01.631Z,8.18
2023-02-02T04:56:08.858Z,11.75
2023-02-02T05:01:13.759Z,10.98
2023-02-02T05:06:20.883Z,9.40
2023-02-02T05:11:27.643Z,10.80
2023-02-02T05:16:31.572Z,11.30
2023-02-02T05:21:42.829Z,11.52
2023-02-02T05:26:46.666Z,9.63
2023-02-02T05:31:50.043Z,7.50
2023-02-02T05:36:57.721Z,11.25
2023-02-02T05:42:00.931Z,9.80
2023-02-02T05:47:04.564Z,11.52
2023-02-02T05:52:14.598Z,15.38
2023-02-02T05:57:20.482Z,14.60
2023-02-02T06:02:26.005Z,13.00
2023-02-02T06:07:32.109Z,12.57
2023-02-02T06:12:35.977Z,14.82
2023-02-02T06:17:39.961Z,8.80
2023-02-02T06:22:45.344Z,12.45
2023-02-02T06:27:51.662Z,12.43
2023-02-02T06:32:56.309Z,9.13
2023-02-02T06:38:02.324Z,11.68
2023-02-02T06:43:09.343Z,9.40
2023-02-02T06:48:23.885Z,11.68
2023-02-02T06:53:34.077Z,13.52
2023-02-02T06:58:37.593Z,11.07
2023-02-02T07:03:41.785Z,9.15
2023-02-02T07:08:49.487Z,9.13
2023-02-02T07:14:06.121Z,14.05
2023-02-02T07:19:10.227Z,11.40
2023-02-02T07:24:16.711Z,10.32
2023-02-02T07:29:20.981Z,14.20
2023-02-02T07:34:24.431Z,8.23
2023-02-02T07:39:30.915Z,6.40
2023-02-02T07:44:40.286Z,6.82
2023-02-02T07:49:52.436Z,9.07
2023-02-02T07:55:13.625Z,6.88
2023-02-02T08:00:20.064Z,8.80
2023-02-02T08:05:23.721Z,8.95
2023-02-02T08:10:29.428Z,8.18
2023-02-02T08:15:33.059Z,12.48
2023-02-02T08:20:36.349Z,8.13
2023-02-02T08:25:43.268Z,9.57
2023-02-02T08:30:48.692Z,8.38
2023-02-02T08:35:52.529Z,4.97
2023-02-02T08:40:57.638Z,9.40
2023-02-02T08:51:38.572Z,6.10
2023-02-02T08:56:44.631Z,5.72
2023-02-02T09:01:49.222Z,9.18
2023-02-02T09:07:00.421Z,7.63
2023-02-02T09:12:06.351Z,3.72
2023-02-02T09:17:10.913Z,6.35
2023-02-02T09:22:15.012Z,12.20
2023-02-02T09:27:25.135Z,11.18
2023-02-02T09:32:30.160Z,6.80
2023-02-02T09:37:36.019Z,14.27
2023-02-02T09:42:57.523Z,5.68
2023-02-02T09:48:05.441Z,8.10
2023-02-02T09:53:16.354Z,6.32
2023-02-02T09:58:25.971Z,6.47
2023-02-02T10:03:38.081Z,6.55
2023-02-02T10:08:49.225Z,8.93
2023-02-02T10:13:54.983Z,7.80
2023-02-02T10:19:02.148Z,5.60
2023-02-02T10:24:11.229Z,5.35
2023-02-02T10:29:19.466Z,3.03
2023-02-02T10:34:25.321Z,5.30
2023-02-02T10:39:40.112Z,4.47
2023-02-02T10:44:58.642Z,6.07
2023-02-02T10:50:19.557Z,3.58
2023-02-02T10:55:37.959Z,2.70
2023-02-02T11:00:49.245Z,4.68
2023-02-02T11:06:13.657Z,6.55
2023-02-02T11:11:31.548Z,6.60
2023-02-02T11:16:43.174Z,3.03
2023-02-02T11:21:53.797Z,2.05
2023-02-02T11:27:01.605Z,1.33
2023-02-02T11:32:32.924Z,6.10
2023-02-02T11:37:40.800Z,5.15
2023-02-02T11:42:47.079Z,3.08
2023-02-02T11:47:52.833Z,6.75
2023-02-02T11:52:58.581Z,7.32
2023-02-02T11:58:34.389Z,1.67
2023-02-02T12:03:43.662Z,1.80
2023-02-02T12:08:48.407Z,5.15
2023-02-02T12:14:02.395Z,5.40
2023-02-02T12:19:22.347Z,2.00
2023-02-02T12:29:52.266Z,4.97
2023-02-02T12:35:13.486Z,5.38
2023-02-02T12:40:45.040Z,5.13
2023-02-02T12:46:12.031Z,4.00
2023-02-02T12:51:28.747Z,8.70
2023-02-02T12:56:34.813Z,5.22
2023-02-02T13:01:52.542Z,5.07
2023-02-02T13:07:30.674Z,7.53
2023-02-02T13:12:42.933Z,4.97
2023-02-02T13:17:51.977Z,8.85
2023-02-02T13:23:04.554Z,5.22
2023-02-02T13:28:08.284Z,11.38
2023-02-02T13:33:24.489Z,6.03
2023-02-02T13:38:30.619Z,6.38
2023-02-02T13:43:40.299Z,4.78
2023-02-02T13:48:53.685Z,2.97
2023-02-02T13:54:21.724Z,9.02
2023-02-02T13:59:56.585Z,8.32
2023-02-02T14:05:05.218Z,6.60
2023-02-02T14:10:34.061Z,4.65
2023-02-02T14:15:40.357Z,6.18
2023-02-02T14:20:51.293Z,5.63
2023-02-02T14:26:14.567Z,1.42
2023-02-02T14:31:31.778Z,5.97
2023-02-02T14:36:35.669Z,5.25
2023-02-02T14:42:32.833Z,4.13
2023-02-02T14:47:44.748Z,3.85
2023-02-02T14:52:56.849Z,4.38
2023-02-02T14:58:05.314Z,8.90
2023-02-02T15:03:48.581Z,4.75
2023-02-02T15:09:26.737Z,2.92
2023-02-02T15:14:35.893Z,2.65
2023-02-02T15:19:41.128Z,3.72
2023-02-02T15:24:45.494Z,6.43
2023-02-02T15:29:52.443Z,5.35
2023-02-02T15:34:56.680Z,6.63
2023-02-02T15:40:02.125Z,7.45
2023-02-02T15:45:08.691Z,7.53
2023-02-02T15:50:19.703Z,6.88
2023-02-02T15:55:26.162Z,6.60
2023-02-02T16:00:38.742Z,7.35
2023-02-02T16:05:44.739Z,8.75
2023-02-02T16:10:49.953Z,8.70
2023-02-02T16:16:03.328Z,5.00
2023-02-02T16:21:11.179Z,5.60
2023-02-02T16:26:14.945Z,15.82
2023-02-02T16:31:24.134Z,7.78
2023-02-02T16:36:30.160Z,9.35
2023-02-02T16:41:36.205Z,9.10
2023-02-02T16:46:53.466Z,8.05
2023-02-02T16:52:14.264Z,10.98
2023-02-02T16:57:24.847Z,14.00
2023-02-02T17:02:37.924Z,11.13
2023-02-02T17:07:42.891Z,9.32
2023-02-02T17:12:48.209Z,11.32
2023-02-02T17:17:54.454Z,9.30
2023-02-02T17:23:07.836Z,7.35
2023-02-02T17:28:13.659Z,4.32
2023-02-02T17:33:19.472Z,7.40
2023-02-02T17:38:23.267Z,11.98
2023-02-02T17:43:29.143Z,9.35
2023-02-02T17:48:39.735Z,11.30
2023-02-02T17:53:43.430Z,9.73
2023-02-02T17:58:47.942Z,9.32
2023-02-02T18:03:55.984Z,7.55
2023-02-02T18:09:00.315Z,10.98
2023-02-02T18:14:04.339Z,10.20
2023-02-02T18:19:10.390Z,6.32
2023-02-02T18:24:17.884Z,8.88
2023-02-02T18:29:21.320Z,7.97
2023-02-02T18:34:29.848Z,4.40
2023-02-02T18:39:34.701Z,10.53
2023-02-02T18:44:39.012Z,12.95
2023-02-02T18:49:45.153Z,11.02
2023-02-02T18:54:49.151Z,9.95
2023-02-02T18:59:53.160Z,8.93
2023-02-02T19:05:19.650Z,10.05
2023-02-02T19:10:26.599Z,8.63
2023-02-02T19:15:30.263Z,8.63
2023-02-02T19:20:35.365Z,9.85
2023-02-02T19:25:50.825Z,9.00
2023-02-02T19:30:55.451Z,9.60
2023-02-02T19:36:01.583Z,6.65
2023-02-02T19:41:10.428Z,7.38
2023-02-02T19:46:17.093Z,10.13
2023-02-02T19:56:59.344Z,8.93
2023-02-02T20:02:19.142Z,6.43
2023-02-02T20:07:24.095Z,7.07
2023-02-02T20:12:30.755Z,5.95
2023-02-02T20:17:38.244Z,9.60
2023-02-02T20:22:42.007Z,7.93
2023-02-02T20:27:47.990Z,6.80
2023-02-02T20:32:55.597Z,9.77
2023-02-02T20:37:59.934Z,9.30
2023-02-02T20:43:05.413Z,6.60
2023-02-02T20:48:10.316Z,10.43
2023-02-02T20:53:16.888Z,15.35
2023-02-02T20:58:23.413Z,8.50
2023-02-02T21:03:29.550Z,9.35
2023-02-02T21:08:33.180Z,9.20
2023-02-02T21:13:38.542Z,11.65
2023-02-02T21:18:42.354Z,13.82
2023-02-02T21:23:47.567Z,8.93
2023-02-02T21:28:53.579Z,8.73
2023-02-02T21:33:58.239Z,14.07
2023-02-02T21:39:15.125Z,11.07
2023-02-02T21:44:22.144Z,16.85
2023-02-02T21:49:28.487Z,14.77
2023-02-02T21:54:43.709Z,15.25
2023-02-02T21:59:54.263Z,17.52
2023-02-02T22:05:01.577Z,14.77
2023-02-02T22:10:10.734Z,14.23
2023-02-02T22:15:19.568Z,17.92
2023-02-02T22:20:37.143Z,16.63
2023-02-02T22:25:41.109Z,18.63
2023-02-02T22:30:50.580Z,12.27
2023-02-02T22:40:58.499Z,18.92
2023-02-02T22:46:03.895Z,18.00
2023-02-02T22:51:08.496Z,16.95
2023-02-02T22:56:12.981Z,15.68
2023-02-02T23:01:18.177Z,13.13
2023-02-02T23:06:22.722Z,9.65
2023-02-02T23:11:26.890Z,9.32
2023-02-02T23:16:32.349Z,10.35
2023-02-02T23:21:36.531Z,11.05
2023-02-02T23:26:40.169Z,10.25
2023-02-02T23:31:47.215Z,10.18
2023-02-02T23:36:55.067Z,8.30
2023-02-02T23:41:58.865Z,9.02
2023-02-02T23:47:06.828Z,8.13
2023-02-02T23:52:11.645Z,10.43
2023-02-02T23:57:15.674Z,7.55
